Bowring, Oklahoma
Current Conditions -  °F | °C
As of 9:13 AM on Sunday 21 Dec 2014 (Local Time) from KBVO Reporting Station
Overcast Overcast  
Wind Chill: 39°   Ceiling: 900
Heat Index: 43°   Visibility: 8mi
Dew Point: 40°   Wind: 6mph
Humidity: 89%   Direction: 170°S
Pressure: 30.06"   Gusts: NA
Location:  36.88°N, 96.12°W
Report Text: KBVO 211513Z 17005KT 8SM BKN009 OVC031 06/04 A3006 RMK AO2 T00610044
Loading
Personal Weather Stations






























Interactive Weather Map New forecast layout! Learn more

10-Day Weather Forecast

Advertisements
Track Severe Weather on mobile